createdAt,value
2023-03-23T15:58:18.344Z,3.10
2023-03-23T16:00:48.241Z,3.80
2023-03-23T16:03:25.407Z,4.37
2023-03-23T16:05:53.958Z,2.93
2023-03-23T16:08:25.365Z,4.00
2023-03-23T16:10:53.950Z,3.33
2023-03-23T16:13:24.524Z,3.27
2023-03-23T16:15:53.198Z,3.40
2023-03-23T16:18:23.340Z,3.20
2023-03-23T16:20:52.321Z,3.80
2023-03-23T16:23:21.303Z,2.87
2023-03-23T16:25:50.326Z,2.50
2023-03-23T16:28:20.833Z,2.90
2023-03-23T16:30:50.762Z,4.90
2023-03-23T16:33:19.369Z,4.07
2023-03-23T16:35:48.268Z,2.53
2023-03-23T16:38:18.297Z,3.50
2023-03-23T16:40:48.316Z,3.60
2023-03-23T16:43:17.075Z,6.33
2023-03-23T16:45:47.183Z,4.03
2023-03-23T16:48:18.536Z,3.73
2023-03-23T16:50:47.173Z,3.40
2023-03-23T16:53:16.462Z,4.00
2023-03-23T16:55:48.366Z,5.27
2023-03-23T16:58:18.360Z,4.10
2023-03-23T17:00:48.710Z,2.90
2023-03-23T17:03:21.918Z,3.53
2023-03-23T17:05:51.515Z,3.50
2023-03-23T17:08:20.722Z,2.50
2023-03-23T17:10:49.785Z,2.57
2023-03-23T17:13:18.931Z,2.73
2023-03-23T17:15:48.103Z,2.80
2023-03-23T17:18:18.522Z,2.37
2023-03-23T17:20:47.425Z,2.77
2023-03-23T17:23:19.366Z,3.07
2023-03-23T17:25:48.747Z,4.80
2023-03-23T17:28:19.437Z,4.70
2023-03-23T17:30:49.371Z,3.50
2023-03-23T17:33:22.150Z,4.40
2023-03-23T17:35:52.106Z,4.20
2023-03-23T17:38:30.171Z,3.97
2023-03-23T17:40:59.390Z,4.20
2023-03-23T17:43:33.781Z,3.87
2023-03-23T17:46:02.477Z,3.80
2023-03-23T17:48:32.678Z,4.00
2023-03-23T17:51:02.630Z,4.60
2023-03-23T17:53:32.606Z,3.90
2023-03-23T17:56:00.985Z,3.70
2023-03-23T17:58:34.548Z,3.37
2023-03-23T18:01:08.676Z,3.73
2023-03-23T18:03:42.968Z,3.63
2023-03-23T18:06:15.495Z,3.50
2023-03-23T18:08:44.725Z,3.07
2023-03-23T18:11:13.712Z,2.77
2023-03-23T18:13:42.430Z,2.93
2023-03-23T18:16:11.812Z,2.93
2023-03-23T18:18:47.365Z,2.90
2023-03-23T18:21:16.316Z,2.00
2023-03-23T18:23:56.694Z,2.60
2023-03-23T18:26:27.358Z,2.57
2023-03-23T18:28:56.554Z,2.17
2023-03-23T18:31:28.439Z,2.80
2023-03-23T18:33:58.483Z,2.17
2023-03-23T18:36:31.195Z,2.37
2023-03-23T18:39:00.479Z,2.10
2023-03-23T18:41:32.215Z,2.53
2023-03-23T18:44:04.027Z,2.50
2023-03-23T18:46:32.911Z,3.03
2023-03-23T18:49:03.150Z,2.30
2023-03-23T18:51:31.809Z,3.33
2023-03-23T18:54:00.495Z,2.37
2023-03-23T18:56:29.629Z,2.00
2023-03-23T18:58:58.723Z,2.87
2023-03-23T19:01:27.883Z,3.10
2023-03-23T19:03:57.012Z,3.20
2023-03-23T19:06:29.914Z,5.20
2023-03-23T19:08:59.131Z,4.90
2023-03-23T19:11:27.903Z,4.57
2023-03-23T19:14:03.772Z,3.27
2023-03-23T19:16:42.404Z,2.80
2023-03-23T19:19:11.492Z,4.00
2023-03-23T19:21:47.053Z,5.00
2023-03-23T19:24:15.922Z,6.57
2023-03-23T19:27:04.807Z,6.60
2023-03-23T19:29:35.720Z,7.00
2023-03-23T19:32:07.818Z,6.27
2023-03-23T19:34:36.479Z,5.77
2023-03-23T19:37:11.034Z,5.47
2023-03-23T19:39:42.532Z,11.37
2023-03-23T19:42:12.286Z,10.60
2023-03-23T19:44:45.333Z,10.23
2023-03-23T19:47:14.565Z,9.20
2023-03-23T19:49:43.324Z,10.17
2023-03-23T19:52:15.001Z,8.30
2023-03-23T19:54:45.356Z,9.40
2023-03-23T19:57:14.979Z,10.53
2023-03-23T19:59:44.500Z,9.00
2023-03-23T20:02:14.992Z,6.67
2023-03-23T20:04:45.471Z,6.83
2023-03-23T20:07:16.469Z,6.07
2023-03-23T20:09:45.676Z,4.47
2023-03-23T20:12:14.677Z,3.70
2023-03-23T20:14:47.439Z,3.70
2023-03-23T20:17:16.234Z,2.60
2023-03-23T20:19:48.728Z,2.73
2023-03-23T20:22:23.043Z,2.90
2023-03-23T20:24:51.917Z,2.97
2023-03-23T20:27:20.688Z,3.53
2023-03-23T20:29:54.192Z,2.20
2023-03-23T20:32:26.586Z,2.87
2023-03-23T20:34:57.680Z,3.10
2023-03-23T20:37:38.454Z,2.37
2023-03-23T20:40:09.269Z,2.87
2023-03-23T20:42:38.132Z,3.20
2023-03-23T20:45:08.764Z,2.50
2023-03-23T20:47:39.552Z,2.80
2023-03-23T20:50:10.373Z,2.60
2023-03-23T20:52:41.346Z,3.53
2023-03-23T20:55:10.986Z,2.80
2023-03-23T20:57:42.669Z,3.20
2023-03-23T21:00:16.772Z,3.10
2023-03-23T21:02:45.573Z,4.00
2023-03-23T21:05:14.333Z,3.03
2023-03-23T21:07:44.540Z,5.90
2023-03-23T21:10:13.279Z,9.37
2023-03-23T21:12:42.122Z,12.47
2023-03-23T21:15:10.903Z,12.70
2023-03-23T21:17:39.461Z,11.50
2023-03-23T21:20:14.272Z,11.40
2023-03-23T21:22:44.584Z,10.93
2023-03-23T21:25:13.835Z,9.50
2023-03-23T21:27:45.312Z,6.13
2023-03-23T21:30:14.527Z,4.80
2023-03-23T21:32:49.295Z,3.77
2023-03-23T21:35:19.006Z,3.33
2023-03-23T21:37:50.417Z,3.17
2023-03-23T21:41:15.008Z,3.00
2023-03-23T21:43:46.111Z,3.17
2023-03-23T21:46:18.461Z,3.13
2023-03-23T21:48:51.744Z,3.00
2023-03-23T21:51:23.413Z,2.80
2023-03-23T21:53:54.692Z,3.10
2023-03-23T21:56:25.022Z,3.17
2023-03-23T21:58:54.695Z,2.80
2023-03-23T22:01:23.586Z,3.00
2023-03-23T22:03:52.673Z,2.97
2023-03-23T22:06:25.127Z,2.70
2023-03-23T22:08:56.252Z,3.00
2023-03-23T22:11:27.146Z,2.73
2023-03-23T22:14:02.880Z,3.53
2023-03-23T22:16:35.844Z,2.90
2023-03-23T22:19:05.234Z,4.43
2023-03-23T22:21:36.757Z,4.30
2023-03-23T22:24:07.528Z,3.83
2023-03-23T22:26:36.624Z,3.70
2023-03-23T22:29:08.242Z,3.10
2023-03-23T22:31:39.826Z,3.30
2023-03-23T22:34:09.152Z,3.37
2023-03-23T22:36:39.114Z,2.83
2023-03-23T22:39:11.341Z,3.30
2023-03-23T22:41:41.404Z,3.60
2023-03-23T22:44:18.398Z,2.60
2023-03-23T22:46:49.598Z,3.10
2023-03-23T22:49:18.345Z,2.60
2023-03-23T22:51:47.551Z,3.60
2023-03-23T22:54:17.652Z,3.40
2023-03-23T22:56:46.847Z,4.20
2023-03-23T22:59:15.688Z,3.30
2023-03-23T23:01:44.679Z,2.63
2023-03-23T23:04:13.179Z,2.90
2023-03-23T23:06:41.968Z,4.13
2023-03-23T23:09:11.111Z,3.77
2023-03-23T23:11:41.382Z,4.20
2023-03-23T23:14:12.887Z,4.00
2023-03-23T23:16:42.529Z,3.90
2023-03-23T23:19:11.643Z,4.30
2023-03-23T23:21:41.425Z,3.87
2023-03-23T23:24:10.223Z,4.13
2023-03-23T23:26:40.279Z,3.37
2023-03-23T23:29:09.481Z,3.77
2023-03-23T23:31:38.647Z,3.60
2023-03-23T23:34:07.412Z,3.40
2023-03-23T23:36:39.216Z,3.80
2023-03-23T23:39:08.953Z,3.47
2023-03-23T23:41:38.512Z,3.77
2023-03-23T23:44:08.823Z,3.80
2023-03-23T23:46:37.802Z,3.50
2023-03-23T23:49:06.494Z,4.33
2023-03-23T23:51:38.173Z,2.73
2023-03-23T23:54:07.136Z,3.90
2023-03-23T23:56:36.309Z,3.83
2023-03-23T23:59:05.300Z,3.13
